sensor_id;sensor_type;location;lat;lon;timestamp;P1;durP1;ratioP1;P2;durP2;ratioP2
19547;SDS011;9919;58.014;11.826;2023-05-29T00:00:53;2.53;;;1.15;;
19547;SDS011;9919;58.014;11.826;2023-05-29T00:02:55;2.92;;;1.00;;
19547;SDS011;9919;58.014;11.826;2023-05-29T00:04:57;1.60;;;0.60;;
19547;SDS011;9919;58.014;11.826;2023-05-29T00:06:58;2.42;;;1.00;;
19547;SDS011;9919;58.014;11.826;2023-05-29T00:09:00;3.20;;;0.90;;
19547;SDS011;9919;58.014;11.826;2023-05-29T00:11:01;1.55;;;0.93;;
19547;SDS011;9919;58.014;11.826;2023-05-29T00:13:02;3.00;;;1.40;;
19547;SDS011;9919;58.014;11.826;2023-05-29T00:15:05;4.25;;;1.00;;
19547;SDS011;9919;58.014;11.826;2023-05-29T00:17:09;2.45;;;1.13;;
19547;SDS011;9919;58.014;11.826;2023-05-29T00:19:15;1.35;;;1.25;;
19547;SDS011;9919;58.014;11.826;2023-05-29T00:21:17;1.95;;;1.10;;
19547;SDS011;9919;58.014;11.826;2023-05-29T00:23:18;3.63;;;1.40;;
19547;SDS011;9919;58.014;11.826;2023-05-29T00:25:20;1.23;;;0.80;;
19547;SDS011;9919;58.014;11.826;2023-05-29T00:27:22;2.80;;;1.33;;
19547;SDS011;9919;58.014;11.826;2023-05-29T00:29:23;2.38;;;1.40;;
19547;SDS011;9919;58.014;11.826;2023-05-29T00:31:25;1.58;;;0.80;;
19547;SDS011;9919;58.014;11.826;2023-05-29T00:33:28;1.88;;;1.08;;
19547;SDS011;9919;58.014;11.826;2023-05-29T00:35:29;1.58;;;1.02;;
19547;SDS011;9919;58.014;11.826;2023-05-29T00:37:32;1.42;;;0.85;;
19547;SDS011;9919;58.014;11.826;2023-05-29T00:39:33;1.05;;;0.90;;
19547;SDS011;9919;58.014;11.826;2023-05-29T00:41:34;2.40;;;1.15;;
19547;SDS011;9919;58.014;11.826;2023-05-29T00:43:36;1.58;;;1.05;;
19547;SDS011;9919;58.014;11.826;2023-05-29T00:45:38;1.58;;;1.02;;
19547;SDS011;9919;58.014;11.826;2023-05-29T00:47:40;2.67;;;0.85;;
19547;SDS011;9919;58.014;11.826;2023-05-29T00:49:42;1.15;;;1.02;;
19547;SDS011;9919;58.014;11.826;2023-05-29T00:51:43;2.35;;;1.05;;
19547;SDS011;9919;58.014;11.826;2023-05-29T00:53:45;1.35;;;0.77;;
19547;SDS011;9919;58.014;11.826;2023-05-29T00:55:46;1.38;;;0.98;;
19547;SDS011;9919;58.014;11.826;2023-05-29T00:57:49;2.17;;;1.10;;
19547;SDS011;9919;58.014;11.826;2023-05-29T00:59:50;0.85;;;0.63;;
19547;SDS011;9919;58.014;11.826;2023-05-29T01:01:52;2.38;;;0.93;;
19547;SDS011;9919;58.014;11.826;2023-05-29T01:03:55;1.40;;;1.10;;
19547;SDS011;9919;58.014;11.826;2023-05-29T01:05:57;3.45;;;0.85;;
19547;SDS011;9919;58.014;11.826;2023-05-29T01:07:59;1.13;;;0.80;;
19547;SDS011;9919;58.014;11.826;2023-05-29T01:10:00;0.85;;;0.80;;
19547;SDS011;9919;58.014;11.826;2023-05-29T01:17:06;2.28;;;0.75;;
19547;SDS011;9919;58.014;11.826;2023-05-29T01:19:21;0.68;;;0.68;;
19547;SDS011;9919;58.014;11.826;2023-05-29T01:28:56;1.48;;;1.00;;
19547;SDS011;9919;58.014;11.826;2023-05-29T01:31:00;1.48;;;0.70;;
19547;SDS011;9919;58.014;11.826;2023-05-29T01:33:02;2.03;;;0.98;;
19547;SDS011;9919;58.014;11.826;2023-05-29T01:35:04;1.35;;;0.90;;
19547;SDS011;9919;58.014;11.826;2023-05-29T01:37:06;2.28;;;1.10;;
19547;SDS011;9919;58.014;11.826;2023-05-29T01:39:08;2.40;;;1.10;;
19547;SDS011;9919;58.014;11.826;2023-05-29T01:41:10;1.77;;;1.02;;
19547;SDS011;9919;58.014;11.826;2023-05-29T01:43:12;0.80;;;0.68;;
19547;SDS011;9919;58.014;11.826;2023-05-29T01:45:13;1.90;;;0.73;;
19547;SDS011;9919;58.014;11.826;2023-05-29T01:47:16;1.75;;;1.05;;
19547;SDS011;9919;58.014;11.826;2023-05-29T01:49:18;2.25;;;1.00;;
19547;SDS011;9919;58.014;11.826;2023-05-29T01:51:20;2.92;;;1.27;;
19547;SDS011;9919;58.014;11.826;2023-05-29T01:53:21;1.92;;;0.90;;
19547;SDS011;9919;58.014;11.826;2023-05-29T01:55:24;2.80;;;0.90;;
19547;SDS011;9919;58.014;11.826;2023-05-29T01:57:25;1.73;;;0.77;;
19547;SDS011;9919;58.014;11.826;2023-05-29T01:59:27;4.78;;;0.90;;
19547;SDS011;9919;58.014;11.826;2023-05-29T02:01:29;1.00;;;1.00;;
19547;SDS011;9919;58.014;11.826;2023-05-29T02:03:31;0.77;;;0.68;;
19547;SDS011;9919;58.014;11.826;2023-05-29T02:05:32;1.25;;;0.80;;
19547;SDS011;9919;58.014;11.826;2023-05-29T02:07:34;6.25;;;1.15;;
19547;SDS011;9919;58.014;11.826;2023-05-29T02:09:39;3.42;;;0.85;;
19547;SDS011;9919;58.014;11.826;2023-05-29T02:11:41;1.35;;;1.00;;
19547;SDS011;9919;58.014;11.826;2023-05-29T02:13:45;1.80;;;0.70;;
19547;SDS011;9919;58.014;11.826;2023-05-29T02:15:47;1.63;;;0.82;;
19547;SDS011;9919;58.014;11.826;2023-05-29T02:17:49;2.53;;;1.23;;
19547;SDS011;9919;58.014;11.826;2023-05-29T02:19:51;3.03;;;1.05;;
19547;SDS011;9919;58.014;11.826;2023-05-29T02:21:54;1.33;;;0.75;;
19547;SDS011;9919;58.014;11.826;2023-05-29T02:23:56;3.65;;;0.85;;
19547;SDS011;9919;58.014;11.826;2023-05-29T02:25:58;1.80;;;0.80;;
19547;SDS011;9919;58.014;11.826;2023-05-29T02:27:59;0.73;;;0.70;;
19547;SDS011;9919;58.014;11.826;2023-05-29T02:30:01;1.23;;;0.70;;
19547;SDS011;9919;58.014;11.826;2023-05-29T02:32:03;1.40;;;0.90;;
19547;SDS011;9919;58.014;11.826;2023-05-29T02:34:04;1.10;;;1.00;;
19547;SDS011;9919;58.014;11.826;2023-05-29T02:36:06;1.38;;;1.05;;
19547;SDS011;9919;58.014;11.826;2023-05-29T02:38:10;1.58;;;1.00;;
19547;SDS011;9919;58.014;11.826;2023-05-29T02:40:12;1.02;;;0.90;;
19547;SDS011;9919;58.014;11.826;2023-05-29T02:42:15;0.68;;;0.65;;
19547;SDS011;9919;58.014;11.826;2023-05-29T02:44:16;1.65;;;1.13;;
19547;SDS011;9919;58.014;11.826;2023-05-29T02:46:18;0.55;;;0.55;;
19547;SDS011;9919;58.014;11.826;2023-05-29T02:48:21;1.08;;;0.80;;
19547;SDS011;9919;58.014;11.826;2023-05-29T02:50:23;0.93;;;0.80;;
19547;SDS011;9919;58.014;11.826;2023-05-29T02:52:24;1.45;;;1.00;;
19547;SDS011;9919;58.014;11.826;2023-05-29T02:54:25;1.77;;;1.00;;
19547;SDS011;9919;58.014;11.826;2023-05-29T02:56:27;1.00;;;0.90;;
19547;SDS011;9919;58.014;11.826;2023-05-29T02:58:30;2.92;;;1.00;;
19547;SDS011;9919;58.014;11.826;2023-05-29T03:00:33;0.88;;;0.88;;
19547;SDS011;9919;58.014;11.826;2023-05-29T03:02:35;2.22;;;0.98;;
19547;SDS011;9919;58.014;11.826;2023-05-29T03:04:36;0.80;;;0.80;;
19547;SDS011;9919;58.014;11.826;2023-05-29T03:06:38;1.25;;;0.70;;
19547;SDS011;9919;58.014;11.826;2023-05-29T03:08:39;0.75;;;0.75;;
19547;SDS011;9919;58.014;11.826;2023-05-29T03:10:41;4.40;;;1.20;;
19547;SDS011;9919;58.014;11.826;2023-05-29T03:12:44;1.05;;;0.80;;
19547;SDS011;9919;58.014;11.826;2023-05-29T03:14:47;1.30;;;0.68;;
19547;SDS011;9919;58.014;11.826;2023-05-29T03:16:49;1.45;;;0.73;;
19547;SDS011;9919;58.014;11.826;2023-05-29T03:18:53;1.40;;;0.65;;
19547;SDS011;9919;58.014;11.826;2023-05-29T03:20:54;0.70;;;0.70;;
19547;SDS011;9919;58.014;11.826;2023-05-29T03:22:56;1.73;;;0.80;;
19547;SDS011;9919;58.014;11.826;2023-05-29T03:24:58;1.02;;;0.50;;
19547;SDS011;9919;58.014;11.826;2023-05-29T03:26:59;0.68;;;0.68;;
19547;SDS011;9919;58.014;11.826;2023-05-29T03:29:03;1.67;;;0.90;;
19547;SDS011;9919;58.014;11.826;2023-05-29T03:31:05;0.80;;;0.80;;
19547;SDS011;9919;58.014;11.826;2023-05-29T03:33:08;1.90;;;0.82;;
19547;SDS011;9919;58.014;11.826;2023-05-29T03:35:09;1.20;;;0.82;;
19547;SDS011;9919;58.014;11.826;2023-05-29T03:37:12;1.58;;;0.77;;
19547;SDS011;9919;58.014;11.826;2023-05-29T03:39:13;2.05;;;0.77;;
19547;SDS011;9919;58.014;11.826;2023-05-29T03:41:15;1.30;;;0.70;;
19547;SDS011;9919;58.014;11.826;2023-05-29T03:43:17;1.55;;;0.80;;
19547;SDS011;9919;58.014;11.826;2023-05-29T03:45:18;1.95;;;1.00;;
19547;SDS011;9919;58.014;11.826;2023-05-29T03:47:20;1.50;;;0.70;;
19547;SDS011;9919;58.014;11.826;2023-05-29T03:49:21;0.75;;;0.68;;
19547;SDS011;9919;58.014;11.826;2023-05-29T03:51:23;2.20;;;0.50;;
19547;SDS011;9919;58.014;11.826;2023-05-29T03:53:24;0.75;;;0.50;;
19547;SDS011;9919;58.014;11.826;2023-05-29T03:55:26;1.45;;;0.90;;
19547;SDS011;9919;58.014;11.826;2023-05-29T03:57:28;0.63;;;0.63;;
19547;SDS011;9919;58.014;11.826;2023-05-29T03:59:29;0.43;;;0.43;;
19547;SDS011;9919;58.014;11.826;2023-05-29T04:01:32;2.08;;;0.88;;
19547;SDS011;9919;58.014;11.826;2023-05-29T04:03:34;0.60;;;0.57;;
19547;SDS011;9919;58.014;11.826;2023-05-29T04:05:36;0.93;;;0.55;;
19547;SDS011;9919;58.014;11.826;2023-05-29T04:07:38;1.95;;;0.57;;
19547;SDS011;9919;58.014;11.826;2023-05-29T04:09:40;0.60;;;0.60;;
19547;SDS011;9919;58.014;11.826;2023-05-29T04:11:41;1.90;;;0.90;;
19547;SDS011;9919;58.014;11.826;2023-05-29T04:13:44;0.73;;;0.60;;
19547;SDS011;9919;58.014;11.826;2023-05-29T04:15:47;1.02;;;0.50;;
19547;SDS011;9919;58.014;11.826;2023-05-29T04:17:49;1.88;;;0.65;;
19547;SDS011;9919;58.014;11.826;2023-05-29T04:19:52;1.38;;;0.95;;
19547;SDS011;9919;58.014;11.826;2023-05-29T04:21:53;1.13;;;1.02;;
19547;SDS011;9919;58.014;11.826;2023-05-29T04:23:55;1.10;;;0.77;;
19547;SDS011;9919;58.014;11.826;2023-05-29T04:25:56;0.68;;;0.68;;
19547;SDS011;9919;58.014;11.826;2023-05-29T04:28:01;0.88;;;0.73;;
19547;SDS011;9919;58.014;11.826;2023-05-29T04:30:04;1.98;;;0.82;;
19547;SDS011;9919;58.014;11.826;2023-05-29T04:32:06;2.03;;;0.77;;
19547;SDS011;9919;58.014;11.826;2023-05-29T04:34:09;1.10;;;0.68;;
19547;SDS011;9919;58.014;11.826;2023-05-29T04:36:10;0.50;;;0.50;;
19547;SDS011;9919;58.014;11.826;2023-05-29T04:38:13;1.98;;;0.60;;
19547;SDS011;9919;58.014;11.826;2023-05-29T04:40:16;1.98;;;0.57;;
19547;SDS011;9919;58.014;11.826;2023-05-29T04:42:17;0.60;;;0.60;;
19547;SDS011;9919;58.014;11.826;2023-05-29T04:44:19;0.80;;;0.80;;
19547;SDS011;9919;58.014;11.826;2023-05-29T04:46:20;0.52;;;0.45;;
19547;SDS011;9919;58.014;11.826;2023-05-29T04:48:24;0.63;;;0.47;;
19547;SDS011;9919;58.014;11.826;2023-05-29T04:50:25;0.40;;;0.40;;
19547;SDS011;9919;58.014;11.826;2023-05-29T04:52:30;1.10;;;0.60;;
19547;SDS011;9919;58.014;11.826;2023-05-29T04:54:32;0.70;;;0.65;;
19547;SDS011;9919;58.014;11.826;2023-05-29T04:56:34;2.58;;;0.80;;
19547;SDS011;9919;58.014;11.826;2023-05-29T04:58:36;1.70;;;0.70;;
19547;SDS011;9919;58.014;11.826;2023-05-29T05:00:38;0.73;;;0.73;;
19547;SDS011;9919;58.014;11.826;2023-05-29T05:02:43;1.35;;;0.63;;
19547;SDS011;9919;58.014;11.826;2023-05-29T05:04:45;1.08;;;0.95;;
19547;SDS011;9919;58.014;11.826;2023-05-29T05:06:47;0.68;;;0.68;;
19547;SDS011;9919;58.014;11.826;2023-05-29T05:08:48;0.73;;;0.70;;
19547;SDS011;9919;58.014;11.826;2023-05-29T05:10:49;1.42;;;1.17;;
19547;SDS011;9919;58.014;11.826;2023-05-29T05:12:52;0.60;;;0.60;;
19547;SDS011;9919;58.014;11.826;2023-05-29T05:14:54;0.63;;;0.50;;
19547;SDS011;9919;58.014;11.826;2023-05-29T05:16:56;0.47;;;0.47;;
19547;SDS011;9919;58.014;11.826;2023-05-29T05:18:58;0.35;;;0.35;;
19547;SDS011;9919;58.014;11.826;2023-05-29T05:21:00;4.00;;;0.65;;
19547;SDS011;9919;58.014;11.826;2023-05-29T05:23:03;0.98;;;0.52;;
19547;SDS011;9919;58.014;11.826;2023-05-29T05:25:06;0.68;;;0.65;;
19547;SDS011;9919;58.014;11.826;2023-05-29T05:27:08;1.27;;;0.60;;
19547;SDS011;9919;58.014;11.826;2023-05-29T05:29:09;0.50;;;0.50;;
19547;SDS011;9919;58.014;11.826;2023-05-29T05:31:11;1.40;;;0.32;;
19547;SDS011;9919;58.014;11.826;2023-05-29T05:33:12;1.27;;;0.65;;
19547;SDS011;9919;58.014;11.826;2023-05-29T05:35:14;0.75;;;0.73;;
19547;SDS011;9919;58.014;11.826;2023-05-29T05:37:16;0.65;;;0.50;;
19547;SDS011;9919;58.014;11.826;2023-05-29T05:39:18;0.57;;;0.57;;
19547;SDS011;9919;58.014;11.826;2023-05-29T05:41:20;0.60;;;0.50;;
19547;SDS011;9919;58.014;11.826;2023-05-29T05:43:21;0.38;;;0.38;;
19547;SDS011;9919;58.014;11.826;2023-05-29T05:45:27;0.90;;;0.52;;
19547;SDS011;9919;58.014;11.826;2023-05-29T05:47:29;1.33;;;0.60;;
19547;SDS011;9919;58.014;11.826;2023-05-29T05:49:31;0.55;;;0.55;;
19547;SDS011;9919;58.014;11.826;2023-05-29T05:51:33;0.50;;;0.50;;
19547;SDS011;9919;58.014;11.826;2023-05-29T05:53:35;0.82;;;0.55;;
19547;SDS011;9919;58.014;11.826;2023-05-29T05:55:37;0.70;;;0.70;;
19547;SDS011;9919;58.014;11.826;2023-05-29T05:57:38;0.45;;;0.45;;
19547;SDS011;9919;58.014;11.826;2023-05-29T05:59:40;0.43;;;0.40;;
19547;SDS011;9919;58.014;11.826;2023-05-29T06:01:43;1.10;;;0.80;;
19547;SDS011;9919;58.014;11.826;2023-05-29T06:03:45;0.85;;;0.43;;
19547;SDS011;9919;58.014;11.826;2023-05-29T06:05:46;0.50;;;0.50;;
19547;SDS011;9919;58.014;11.826;2023-05-29T06:07:48;0.50;;;0.50;;
19547;SDS011;9919;58.014;11.826;2023-05-29T06:09:49;0.82;;;0.50;;
19547;SDS011;9919;58.014;11.826;2023-05-29T06:11:51;0.70;;;0.57;;
19547;SDS011;9919;58.014;11.826;2023-05-29T06:13:53;0.30;;;0.30;;
19547;SDS011;9919;58.014;11.826;2023-05-29T06:15:54;1.38;;;0.60;;
19547;SDS011;9919;58.014;11.826;2023-05-29T06:17:56;2.22;;;0.52;;
19547;SDS011;9919;58.014;11.826;2023-05-29T06:20:00;0.40;;;0.40;;
19547;SDS011;9919;58.014;11.826;2023-05-29T06:22:05;0.75;;;0.40;;
19547;SDS011;9919;58.014;11.826;2023-05-29T06:24:08;0.65;;;0.65;;
19547;SDS011;9919;58.014;11.826;2023-05-29T06:26:09;2.33;;;0.60;;
19547;SDS011;9919;58.014;11.826;2023-05-29T06:28:12;0.40;;;0.40;;
19547;SDS011;9919;58.014;11.826;2023-05-29T06:30:14;0.45;;;0.45;;
19547;SDS011;9919;58.014;11.826;2023-05-29T06:32:16;1.00;;;0.57;;
19547;SDS011;9919;58.014;11.826;2023-05-29T06:34:18;0.35;;;0.35;;
19547;SDS011;9919;58.014;11.826;2023-05-29T06:36:20;0.40;;;0.40;;
19547;SDS011;9919;58.014;11.826;2023-05-29T06:38:21;3.45;;;0.52;;
19547;SDS011;9919;58.014;11.826;2023-05-29T06:40:31;0.50;;;0.50;;
19547;SDS011;9919;58.014;11.826;2023-05-29T06:42:33;0.90;;;0.60;;
19547;SDS011;9919;58.014;11.826;2023-05-29T06:44:35;0.85;;;0.65;;
19547;SDS011;9919;58.014;11.826;2023-05-29T06:46:36;0.85;;;0.60;;
19547;SDS011;9919;58.014;11.826;2023-05-29T06:48:37;1.00;;;0.47;;
19547;SDS011;9919;58.014;11.826;2023-05-29T06:50:39;0.40;;;0.40;;
19547;SDS011;9919;58.014;11.826;2023-05-29T06:52:40;0.73;;;0.50;;
19547;SDS011;9919;58.014;11.826;2023-05-29T06:54:41;0.95;;;0.82;;
19547;SDS011;9919;58.014;11.826;2023-05-29T06:56:43;0.50;;;0.50;;
19547;SDS011;9919;58.014;11.826;2023-05-29T06:58:45;0.73;;;0.73;;
19547;SDS011;9919;58.014;11.826;2023-05-29T07:00:46;0.50;;;0.50;;
19547;SDS011;9919;58.014;11.826;2023-05-29T07:02:47;0.57;;;0.47;;
19547;SDS011;9919;58.014;11.826;2023-05-29T07:04:51;0.30;;;0.30;;
19547;SDS011;9919;58.014;11.826;2023-05-29T07:06:52;0.50;;;0.50;;
19547;SDS011;9919;58.014;11.826;2023-05-29T07:08:55;1.85;;;0.35;;
19547;SDS011;9919;58.014;11.826;2023-05-29T07:10:56;0.77;;;0.55;;
19547;SDS011;9919;58.014;11.826;2023-05-29T07:12:57;0.52;;;0.47;;
19547;SDS011;9919;58.014;11.826;2023-05-29T07:14:59;0.40;;;0.40;;
19547;SDS011;9919;58.014;11.826;2023-05-29T07:17:00;0.30;;;0.30;;
19547;SDS011;9919;58.014;11.826;2023-05-29T07:19:01;0.60;;;0.50;;
19547;SDS011;9919;58.014;11.826;2023-05-29T07:21:06;0.63;;;0.63;;
19547;SDS011;9919;58.014;11.826;2023-05-29T07:23:07;0.30;;;0.30;;
19547;SDS011;9919;58.014;11.826;2023-05-29T07:25:09;0.40;;;0.40;;
19547;SDS011;9919;58.014;11.826;2023-05-29T07:27:11;0.40;;;0.40;;
19547;SDS011;9919;58.014;11.826;2023-05-29T07:29:12;0.85;;;0.50;;
19547;SDS011;9919;58.014;11.826;2023-05-29T07:31:15;0.10;;;0.10;;
19547;SDS011;9919;58.014;11.826;2023-05-29T07:33:16;0.40;;;0.40;;
19547;SDS011;9919;58.014;11.826;2023-05-29T07:35:17;0.40;;;0.40;;
19547;SDS011;9919;58.014;11.826;2023-05-29T07:37:19;0.32;;;0.32;;
19547;SDS011;9919;58.014;11.826;2023-05-29T07:39:20;0.65;;;0.40;;
19547;SDS011;9919;58.014;11.826;2023-05-29T07:41:22;0.57;;;0.57;;
19547;SDS011;9919;58.014;11.826;2023-05-29T07:43:24;0.55;;;0.38;;
19547;SDS011;9919;58.014;11.826;2023-05-29T07:45:26;0.65;;;0.60;;
19547;SDS011;9919;58.014;11.826;2023-05-29T07:47:28;0.52;;;0.52;;
19547;SDS011;9919;58.014;11.826;2023-05-29T07:49:30;0.40;;;0.40;;
19547;SDS011;9919;58.014;11.826;2023-05-29T07:51:31;0.93;;;0.75;;
19547;SDS011;9919;58.014;11.826;2023-05-29T07:53:33;0.85;;;0.60;;
19547;SDS011;9919;58.014;11.826;2023-05-29T07:55:34;0.80;;;0.80;;
19547;SDS011;9919;58.014;11.826;2023-05-29T07:57:36;0.52;;;0.52;;
19547;SDS011;9919;58.014;11.826;2023-05-29T07:59:37;0.38;;;0.38;;
19547;SDS011;9919;58.014;11.826;2023-05-29T08:01:41;0.47;;;0.40;;
19547;SDS011;9919;58.014;11.826;2023-05-29T08:03:44;0.80;;;0.75;;
19547;SDS011;9919;58.014;11.826;2023-05-29T08:05:46;1.23;;;0.45;;
19547;SDS011;9919;58.014;11.826;2023-05-29T08:07:48;0.50;;;0.50;;
19547;SDS011;9919;58.014;11.826;2023-05-29T08:09:49;0.60;;;0.60;;
19547;SDS011;9919;58.014;11.826;2023-05-29T08:11:51;0.28;;;0.28;;
19547;SDS011;9919;58.014;11.826;2023-05-29T08:13:52;0.73;;;0.43;;
19547;SDS011;9919;58.014;11.826;2023-05-29T08:15:54;0.30;;;0.30;;
19547;SDS011;9919;58.014;11.826;2023-05-29T08:17:55;0.50;;;0.50;;
19547;SDS011;9919;58.014;11.826;2023-05-29T08:19:58;0.60;;;0.60;;
19547;SDS011;9919;58.014;11.826;2023-05-29T08:21:59;1.17;;;0.40;;
19547;SDS011;9919;58.014;11.826;2023-05-29T08:24:01;0.57;;;0.57;;
19547;SDS011;9919;58.014;11.826;2023-05-29T08:26:05;0.40;;;0.40;;
19547;SDS011;9919;58.014;11.826;2023-05-29T08:28:07;1.00;;;0.45;;
19547;SDS011;9919;58.014;11.826;2023-05-29T08:30:08;0.50;;;0.35;;
19547;SDS011;9919;58.014;11.826;2023-05-29T08:32:11;0.50;;;0.50;;
19547;SDS011;9919;58.014;11.826;2023-05-29T08:34:13;0.65;;;0.65;;
19547;SDS011;9919;58.014;11.826;2023-05-29T08:36:15;0.50;;;0.50;;
19547;SDS011;9919;58.014;11.826;2023-05-29T08:38:17;0.60;;;0.60;;
19547;SDS011;9919;58.014;11.826;2023-05-29T08:40:20;0.38;;;0.38;;
19547;SDS011;9919;58.014;11.826;2023-05-29T08:42:26;0.28;;;0.28;;
19547;SDS011;9919;58.014;11.826;2023-05-29T08:44:30;0.70;;;0.65;;
19547;SDS011;9919;58.014;11.826;2023-05-29T08:46:32;0.52;;;0.30;;
19547;SDS011;9919;58.014;11.826;2023-05-29T08:48:34;0.63;;;0.50;;
19547;SDS011;9919;58.014;11.826;2023-05-29T08:50:40;0.60;;;0.38;;
19547;SDS011;9919;58.014;11.826;2023-05-29T08:52:48;0.22;;;0.22;;
19547;SDS011;9919;58.014;11.826;2023-05-29T08:54:52;1.80;;;0.52;;
19547;SDS011;9919;58.014;11.826;2023-05-29T08:56:54;0.40;;;0.40;;
19547;SDS011;9919;58.014;11.826;2023-05-29T08:58:57;0.68;;;0.30;;
19547;SDS011;9919;58.014;11.826;2023-05-29T09:00:59;1.25;;;0.50;;
19547;SDS011;9919;58.014;11.826;2023-05-29T09:03:01;3.20;;;0.82;;
19547;SDS011;9919;58.014;11.826;2023-05-29T09:05:03;0.45;;;0.45;;
19547;SDS011;9919;58.014;11.826;2023-05-29T09:07:06;0.32;;;0.32;;
19547;SDS011;9919;58.014;11.826;2023-05-29T09:09:08;0.40;;;0.32;;
19547;SDS011;9919;58.014;11.826;2023-05-29T09:11:10;0.28;;;0.28;;
19547;SDS011;9919;58.014;11.826;2023-05-29T09:13:11;0.40;;;0.40;;
19547;SDS011;9919;58.014;11.826;2023-05-29T09:15:17;1.08;;;0.60;;
19547;SDS011;9919;58.014;11.826;2023-05-29T09:17:22;0.65;;;0.65;;
19547;SDS011;9919;58.014;11.826;2023-05-29T09:19:25;0.30;;;0.30;;
19547;SDS011;9919;58.014;11.826;2023-05-29T09:21:27;0.43;;;0.43;;
19547;SDS011;9919;58.014;11.826;2023-05-29T09:23:33;0.60;;;0.60;;
19547;SDS011;9919;58.014;11.826;2023-05-29T09:25:40;0.22;;;0.22;;
19547;SDS011;9919;58.014;11.826;2023-05-29T09:27:46;0.75;;;0.63;;
19547;SDS011;9919;58.014;11.826;2023-05-29T09:29:48;0.35;;;0.35;;
19547;SDS011;9919;58.014;11.826;2023-05-29T09:31:50;0.28;;;0.28;;
19547;SDS011;9919;58.014;11.826;2023-05-29T09:33:52;0.40;;;0.40;;
19547;SDS011;9919;58.014;11.826;2023-05-29T09:35:53;0.30;;;0.30;;
19547;SDS011;9919;58.014;11.826;2023-05-29T09:37:54;0.35;;;0.35;;
19547;SDS011;9919;58.014;11.826;2023-05-29T09:39:56;0.35;;;0.35;;
19547;SDS011;9919;58.014;11.826;2023-05-29T09:41:57;0.40;;;0.40;;
19547;SDS011;9919;58.014;11.826;2023-05-29T09:44:02;0.30;;;0.30;;
19547;SDS011;9919;58.014;11.826;2023-05-29T09:46:05;0.38;;;0.38;;
19547;SDS011;9919;58.014;11.826;2023-05-29T09:48:08;0.60;;;0.60;;
19547;SDS011;9919;58.014;11.826;2023-05-29T09:50:18;0.20;;;0.20;;
19547;SDS011;9919;58.014;11.826;2023-05-29T09:52:22;0.52;;;0.50;;
19547;SDS011;9919;58.014;11.826;2023-05-29T09:54:24;1.35;;;0.40;;
19547;SDS011;9919;58.014;11.826;2023-05-29T09:56:30;0.75;;;0.40;;
19547;SDS011;9919;58.014;11.826;2023-05-29T09:58:33;0.70;;;0.45;;
19547;SDS011;9919;58.014;11.826;2023-05-29T10:00:39;0.40;;;0.40;;
19547;SDS011;9919;58.014;11.826;2023-05-29T10:02:44;0.70;;;0.43;;
19547;SDS011;9919;58.014;11.826;2023-05-29T10:04:45;0.40;;;0.30;;
19547;SDS011;9919;58.014;11.826;2023-05-29T10:06:49;0.82;;;0.30;;
19547;SDS011;9919;58.014;11.826;2023-05-29T10:08:52;0.25;;;0.25;;
19547;SDS011;9919;58.014;11.826;2023-05-29T10:10:58;0.77;;;0.40;;
19547;SDS011;9919;58.014;11.826;2023-05-29T10:13:02;0.40;;;0.40;;
19547;SDS011;9919;58.014;11.826;2023-05-29T10:15:06;0.47;;;0.47;;
19547;SDS011;9919;58.014;11.826;2023-05-29T10:17:14;0.52;;;0.47;;
19547;SDS011;9919;58.014;11.826;2023-05-29T10:19:18;0.55;;;0.40;;
19547;SDS011;9919;58.014;11.826;2023-05-29T10:21:26;0.43;;;0.43;;
19547;SDS011;9919;58.014;11.826;2023-05-29T10:23:28;0.70;;;0.30;;
19547;SDS011;9919;58.014;11.826;2023-05-29T10:25:32;0.43;;;0.43;;
19547;SDS011;9919;58.014;11.826;2023-05-29T10:27:35;0.20;;;0.20;;
19547;SDS011;9919;58.014;11.826;2023-05-29T10:29:42;0.50;;;0.50;;
19547;SDS011;9919;58.014;11.826;2023-05-29T10:36:55;0.30;;;0.30;;
19547;SDS011;9919;58.014;11.826;2023-05-29T10:39:09;0.93;;;0.70;;
19547;SDS011;9919;58.014;11.826;2023-05-29T10:47:40;0.55;;;0.40;;
19547;SDS011;9919;58.014;11.826;2023-05-29T10:49:48;0.40;;;0.40;;
19547;SDS011;9919;58.014;11.826;2023-05-29T10:51:53;0.47;;;0.47;;
19547;SDS011;9919;58.014;11.826;2023-05-29T10:53:54;0.20;;;0.20;;
19547;SDS011;9919;58.014;11.826;2023-05-29T10:55:56;0.40;;;0.40;;
19547;SDS011;9919;58.014;11.826;2023-05-29T10:58:06;0.30;;;0.30;;
19547;SDS011;9919;58.014;11.826;2023-05-29T11:00:24;0.30;;;0.30;;
19547;SDS011;9919;58.014;11.826;2023-05-29T11:02:26;0.40;;;0.40;;
19547;SDS011;9919;58.014;11.826;2023-05-29T11:04:28;0.30;;;0.30;;
19547;SDS011;9919;58.014;11.826;2023-05-29T11:06:34;0.40;;;0.40;;
19547;SDS011;9919;58.014;11.826;2023-05-29T11:12:58;0.63;;;0.63;;
19547;SDS011;9919;58.014;11.826;2023-05-29T11:15:02;0.60;;;0.30;;
19547;SDS011;9919;58.014;11.826;2023-05-29T11:17:05;0.50;;;0.50;;
19547;SDS011;9919;58.014;11.826;2023-05-29T11:19:07;0.40;;;0.40;;
19547;SDS011;9919;58.014;11.826;2023-05-29T11:21:22;0.90;;;0.40;;
19547;SDS011;9919;58.014;11.826;2023-05-29T11:23:42;0.60;;;0.60;;
19547;SDS011;9919;58.014;11.826;2023-05-29T11:25:44;0.55;;;0.55;;
19547;SDS011;9919;58.014;11.826;2023-05-29T11:27:48;0.63;;;0.63;;
19547;SDS011;9919;58.014;11.826;2023-05-29T11:29:53;0.45;;;0.32;;
19547;SDS011;9919;58.014;11.826;2023-05-29T11:32:01;0.30;;;0.30;;
19547;SDS011;9919;58.014;11.826;2023-05-29T11:34:12;0.40;;;0.40;;
19547;SDS011;9919;58.014;11.826;2023-05-29T11:36:21;0.38;;;0.38;;
19547;SDS011;9919;58.014;11.826;2023-05-29T11:38:23;0.22;;;0.22;;
19547;SDS011;9919;58.014;11.826;2023-05-29T11:40:27;0.40;;;0.40;;
19547;SDS011;9919;58.014;11.826;2023-05-29T11:42:31;0.20;;;0.20;;
19547;SDS011;9919;58.014;11.826;2023-05-29T11:44:32;0.60;;;0.60;;
19547;SDS011;9919;58.014;11.826;2023-05-29T11:46:35;0.40;;;0.35;;
19547;SDS011;9919;58.014;11.826;2023-05-29T11:48:44;0.40;;;0.40;;
19547;SDS011;9919;58.014;11.826;2023-05-29T11:50:46;0.40;;;0.40;;
19547;SDS011;9919;58.014;11.826;2023-05-29T11:52:47;0.55;;;0.55;;
19547;SDS011;9919;58.014;11.826;2023-05-29T11:54:49;0.25;;;0.25;;
19547;SDS011;9919;58.014;11.826;2023-05-29T11:56:50;0.40;;;0.40;;
19547;SDS011;9919;58.014;11.826;2023-05-29T11:58:53;0.30;;;0.20;;
19547;SDS011;9919;58.014;11.826;2023-05-29T12:00:59;0.40;;;0.40;;
19547;SDS011;9919;58.014;11.826;2023-05-29T12:03:01;0.20;;;0.20;;
19547;SDS011;9919;58.014;11.826;2023-05-29T12:05:04;0.30;;;0.30;;
19547;SDS011;9919;58.014;11.826;2023-05-29T12:07:26;0.50;;;0.50;;
19547;SDS011;9919;58.014;11.826;2023-05-29T12:09:28;0.30;;;0.30;;
19547;SDS011;9919;58.014;11.826;2023-05-29T12:11:31;0.20;;;0.20;;
19547;SDS011;9919;58.014;11.826;2023-05-29T12:13:34;0.40;;;0.40;;
19547;SDS011;9919;58.014;11.826;2023-05-29T12:15:36;0.40;;;0.40;;
19547;SDS011;9919;58.014;11.826;2023-05-29T12:17:38;0.73;;;0.30;;
19547;SDS011;9919;58.014;11.826;2023-05-29T12:19:42;0.40;;;0.40;;
19547;SDS011;9919;58.014;11.826;2023-05-29T12:21:43;0.35;;;0.35;;
19547;SDS011;9919;58.014;11.826;2023-05-29T12:23:46;1.20;;;0.40;;
19547;SDS011;9919;58.014;11.826;2023-05-29T12:25:48;0.82;;;0.17;;
19547;SDS011;9919;58.014;11.826;2023-05-29T12:27:49;0.63;;;0.32;;
19547;SDS011;9919;58.014;11.826;2023-05-29T12:29:59;0.40;;;0.40;;
19547;SDS011;9919;58.014;11.826;2023-05-29T12:32:01;0.55;;;0.43;;
19547;SDS011;9919;58.014;11.826;2023-05-29T12:34:10;1.27;;;0.38;;
19547;SDS011;9919;58.014;11.826;2023-05-29T12:36:12;0.40;;;0.40;;
19547;SDS011;9919;58.014;11.826;2023-05-29T12:38:14;0.50;;;0.50;;
19547;SDS011;9919;58.014;11.826;2023-05-29T12:40:16;0.35;;;0.35;;
19547;SDS011;9919;58.014;11.826;2023-05-29T12:42:18;0.40;;;0.40;;
19547;SDS011;9919;58.014;11.826;2023-05-29T12:44:20;0.30;;;0.30;;
19547;SDS011;9919;58.014;11.826;2023-05-29T12:46:21;0.35;;;0.35;;
19547;SDS011;9919;58.014;11.826;2023-05-29T12:48:26;0.40;;;0.40;;